Weather at Fetlar Airstrip

Public forecast

Using degrees Celsius for public forecast. Weather courtesy of forecast.io.

Closest aviation weather report (METAR) to Fetlar Airstrip

Closest report is Sumburgh Airport, 45.3 nm (83.9 km) SSW.

2024/07/24 22:20 (retrieved 16 minutes ago)

EGPB 242220Z AUTO 16012KT 9999 OVC013/// 14/11 Q1010

Closest aviation forecast (TAF) to Fetlar Airstrip

Closest forecast is Gullfaks C Helipad, 98.8 nm (183.0 km) ENE.

2024/07/24 21:40 (retrieved 56 minutes ago)

TAF ENGC 242000Z 2421/2521 03008KT 9999 FEW015 PROB30 2421/2504 0100 FG VV001 BECMG 2501/2503 19010KT BECMG 2506/2508 16020KT BECMG 2512/2515 15030KT BKN012 TEMPO 2514/2521 4000 DZRA BR BKN006 PROB40 2515/2521 0100 FG VV001